sensor_id;sensor_type;location;lat;lon;timestamp;P1;durP1;ratioP1;P2;durP2;ratioP2
79792;SDS011;69279;49.072;17.462;2023-05-10T00:00:08;1.45;;;0.93;;
79792;SDS011;69279;49.072;17.462;2023-05-10T00:02:34;1.27;;;0.90;;
79792;SDS011;69279;49.072;17.462;2023-05-10T00:05:00;1.58;;;1.10;;
79792;SDS011;69279;49.072;17.462;2023-05-10T00:07:25;1.02;;;0.70;;
79792;SDS011;69279;49.072;17.462;2023-05-10T00:09:51;1.30;;;0.85;;
79792;SDS011;69279;49.072;17.462;2023-05-10T00:12:16;0.90;;;0.70;;
79792;SDS011;69279;49.072;17.462;2023-05-10T00:14:41;1.10;;;0.90;;
79792;SDS011;69279;49.072;17.462;2023-05-10T00:17:07;1.08;;;0.88;;
79792;SDS011;69279;49.072;17.462;2023-05-10T00:19:32;1.33;;;0.88;;
79792;SDS011;69279;49.072;17.462;2023-05-10T00:21:57;0.95;;;0.70;;
79792;SDS011;69279;49.072;17.462;2023-05-10T00:24:23;1.13;;;0.73;;
79792;SDS011;69279;49.072;17.462;2023-05-10T00:26:48;1.08;;;0.70;;
79792;SDS011;69279;49.072;17.462;2023-05-10T00:29:13;0.90;;;0.75;;
79792;SDS011;69279;49.072;17.462;2023-05-10T00:31:39;1.25;;;0.90;;
79792;SDS011;69279;49.072;17.462;2023-05-10T00:34:04;1.40;;;0.90;;
79792;SDS011;69279;49.072;17.462;2023-05-10T00:36:30;1.33;;;1.13;;
79792;SDS011;69279;49.072;17.462;2023-05-10T00:38:56;1.17;;;0.98;;
79792;SDS011;69279;49.072;17.462;2023-05-10T00:41:21;1.45;;;0.95;;
79792;SDS011;69279;49.072;17.462;2023-05-10T00:43:46;0.82;;;0.80;;
79792;SDS011;69279;49.072;17.462;2023-05-10T00:46:12;1.38;;;1.00;;
79792;SDS011;69279;49.072;17.462;2023-05-10T00:48:39;1.08;;;0.75;;
79792;SDS011;69279;49.072;17.462;2023-05-10T00:51:04;0.98;;;0.70;;
79792;SDS011;69279;49.072;17.462;2023-05-10T00:53:30;1.00;;;0.80;;
79792;SDS011;69279;49.072;17.462;2023-05-10T00:55:57;1.10;;;0.90;;
79792;SDS011;69279;49.072;17.462;2023-05-10T00:58:22;0.90;;;0.60;;
79792;SDS011;69279;49.072;17.462;2023-05-10T01:00:48;0.90;;;0.80;;
79792;SDS011;69279;49.072;17.462;2023-05-10T01:03:14;1.60;;;0.73;;
79792;SDS011;69279;49.072;17.462;2023-05-10T01:05:39;0.93;;;0.90;;
79792;SDS011;69279;49.072;17.462;2023-05-10T01:08:05;1.00;;;0.82;;
79792;SDS011;69279;49.072;17.462;2023-05-10T01:10:31;1.20;;;1.00;;
79792;SDS011;69279;49.072;17.462;2023-05-10T01:12:56;1.25;;;0.85;;
79792;SDS011;69279;49.072;17.462;2023-05-10T01:15:23;0.88;;;0.60;;
79792;SDS011;69279;49.072;17.462;2023-05-10T01:17:49;0.93;;;0.63;;
79792;SDS011;69279;49.072;17.462;2023-05-10T01:20:14;1.30;;;1.10;;
79792;SDS011;69279;49.072;17.462;2023-05-10T01:25:48;1.40;;;0.85;;
79792;SDS011;69279;49.072;17.462;2023-05-10T01:36:45;1.40;;;0.88;;
79792;SDS011;69279;49.072;17.462;2023-05-10T01:39:18;1.27;;;0.90;;
79792;SDS011;69279;49.072;17.462;2023-05-10T01:41:56;0.90;;;0.70;;
79792;SDS011;69279;49.072;17.462;2023-05-10T01:50:03;1.10;;;1.00;;
79792;SDS011;69279;49.072;17.462;2023-05-10T01:52:31;1.35;;;0.80;;
79792;SDS011;69279;49.072;17.462;2023-05-10T01:55:04;1.48;;;0.73;;
79792;SDS011;69279;49.072;17.462;2023-05-10T01:57:32;1.15;;;0.90;;
79792;SDS011;69279;49.072;17.462;2023-05-10T01:59:58;1.52;;;1.10;;
79792;SDS011;69279;49.072;17.462;2023-05-10T02:02:25;0.95;;;0.70;;
79792;SDS011;69279;49.072;17.462;2023-05-10T02:04:53;0.80;;;0.50;;
79792;SDS011;69279;49.072;17.462;2023-05-10T02:07:18;1.00;;;0.70;;
79792;SDS011;69279;49.072;17.462;2023-05-10T02:09:45;1.05;;;0.70;;
79792;SDS011;69279;49.072;17.462;2023-05-10T02:12:14;1.00;;;0.75;;
79792;SDS011;69279;49.072;17.462;2023-05-10T02:14:40;1.08;;;0.75;;
79792;SDS011;69279;49.072;17.462;2023-05-10T02:17:06;1.08;;;0.80;;
79792;SDS011;69279;49.072;17.462;2023-05-10T02:19:32;1.27;;;0.93;;
79792;SDS011;69279;49.072;17.462;2023-05-10T02:21:59;0.93;;;0.70;;
79792;SDS011;69279;49.072;17.462;2023-05-10T02:24:25;1.02;;;0.60;;
79792;SDS011;69279;49.072;17.462;2023-05-10T02:26:52;1.17;;;0.68;;
79792;SDS011;69279;49.072;17.462;2023-05-10T02:29:20;1.00;;;0.80;;
79792;SDS011;69279;49.072;17.462;2023-05-10T02:31:48;1.20;;;0.70;;
79792;SDS011;69279;49.072;17.462;2023-05-10T02:34:15;1.27;;;1.00;;
79792;SDS011;69279;49.072;17.462;2023-05-10T02:36:41;1.02;;;0.75;;
79792;SDS011;69279;49.072;17.462;2023-05-10T02:39:06;0.82;;;0.60;;
79792;SDS011;69279;49.072;17.462;2023-05-10T02:41:37;1.17;;;0.77;;
79792;SDS011;69279;49.072;17.462;2023-05-10T02:44:05;1.00;;;0.68;;
79792;SDS011;69279;49.072;17.462;2023-05-10T02:46:31;1.20;;;0.80;;
79792;SDS011;69279;49.072;17.462;2023-05-10T02:48:57;0.90;;;0.70;;
79792;SDS011;69279;49.072;17.462;2023-05-10T02:51:24;1.15;;;0.95;;
79792;SDS011;69279;49.072;17.462;2023-05-10T02:53:50;0.90;;;0.80;;
79792;SDS011;69279;49.072;17.462;2023-05-10T02:56:20;1.45;;;0.70;;
79792;SDS011;69279;49.072;17.462;2023-05-10T02:58:50;0.73;;;0.70;;
79792;SDS011;69279;49.072;17.462;2023-05-10T03:01:15;1.08;;;0.75;;
79792;SDS011;69279;49.072;17.462;2023-05-10T03:03:41;1.40;;;0.95;;
79792;SDS011;69279;49.072;17.462;2023-05-10T03:06:06;1.70;;;0.90;;
79792;SDS011;69279;49.072;17.462;2023-05-10T03:08:32;1.02;;;0.52;;
79792;SDS011;69279;49.072;17.462;2023-05-10T03:16:46;1.15;;;0.80;;
79792;SDS011;69279;49.072;17.462;2023-05-10T03:19:40;1.13;;;0.60;;
79792;SDS011;69279;49.072;17.462;2023-05-10T03:22:10;1.02;;;0.57;;
79792;SDS011;69279;49.072;17.462;2023-05-10T03:24:38;0.95;;;0.75;;
79792;SDS011;69279;49.072;17.462;2023-05-10T03:27:04;0.80;;;0.60;;
79792;SDS011;69279;49.072;17.462;2023-05-10T03:29:30;0.90;;;0.77;;
79792;SDS011;69279;49.072;17.462;2023-05-10T03:31:57;1.10;;;0.80;;
79792;SDS011;69279;49.072;17.462;2023-05-10T03:34:26;1.10;;;0.60;;
79792;SDS011;69279;49.072;17.462;2023-05-10T03:36:52;0.70;;;0.50;;
79792;SDS011;69279;49.072;17.462;2023-05-10T03:39:17;1.75;;;0.90;;
79792;SDS011;69279;49.072;17.462;2023-05-10T03:41:42;1.13;;;0.60;;
79792;SDS011;69279;49.072;17.462;2023-05-10T03:44:08;1.13;;;0.70;;
79792;SDS011;69279;49.072;17.462;2023-05-10T03:46:33;1.20;;;0.90;;
79792;SDS011;69279;49.072;17.462;2023-05-10T03:48:58;1.10;;;0.63;;
79792;SDS011;69279;49.072;17.462;2023-05-10T03:51:24;0.80;;;0.60;;
79792;SDS011;69279;49.072;17.462;2023-05-10T03:53:53;1.10;;;0.65;;
79792;SDS011;69279;49.072;17.462;2023-05-10T03:56:18;0.70;;;0.60;;
79792;SDS011;69279;49.072;17.462;2023-05-10T03:58:44;1.00;;;0.65;;
79792;SDS011;69279;49.072;17.462;2023-05-10T04:01:12;1.05;;;0.93;;
79792;SDS011;69279;49.072;17.462;2023-05-10T04:03:37;1.35;;;0.63;;
79792;SDS011;69279;49.072;17.462;2023-05-10T04:06:03;0.93;;;0.60;;
79792;SDS011;69279;49.072;17.462;2023-05-10T04:08:29;0.80;;;0.60;;
79792;SDS011;69279;49.072;17.462;2023-05-10T04:10:54;1.10;;;0.52;;
79792;SDS011;69279;49.072;17.462;2023-05-10T04:13:22;1.30;;;0.80;;
79792;SDS011;69279;49.072;17.462;2023-05-10T04:15:48;1.40;;;0.90;;
79792;SDS011;69279;49.072;17.462;2023-05-10T04:18:13;0.90;;;0.70;;
79792;SDS011;69279;49.072;17.462;2023-05-10T04:20:38;0.90;;;0.60;;
79792;SDS011;69279;49.072;17.462;2023-05-10T04:23:04;1.20;;;0.80;;
79792;SDS011;69279;49.072;17.462;2023-05-10T04:25:29;1.33;;;0.82;;
79792;SDS011;69279;49.072;17.462;2023-05-10T04:27:54;0.88;;;0.60;;
79792;SDS011;69279;49.072;17.462;2023-05-10T04:30:20;1.23;;;0.65;;
79792;SDS011;69279;49.072;17.462;2023-05-10T04:32:45;0.90;;;0.55;;
79792;SDS011;69279;49.072;17.462;2023-05-10T04:35:11;0.82;;;0.57;;
79792;SDS011;69279;49.072;17.462;2023-05-10T04:37:37;1.00;;;0.60;;
79792;SDS011;69279;49.072;17.462;2023-05-10T04:40:02;1.00;;;0.82;;
79792;SDS011;69279;49.072;17.462;2023-05-10T04:42:28;1.60;;;0.80;;
79792;SDS011;69279;49.072;17.462;2023-05-10T04:44:53;1.13;;;0.70;;
79792;SDS011;69279;49.072;17.462;2023-05-10T04:47:20;2.60;;;0.80;;
79792;SDS011;69279;49.072;17.462;2023-05-10T04:49:58;3.80;;;0.90;;
79792;SDS011;69279;49.072;17.462;2023-05-10T04:52:23;3.75;;;1.27;;
79792;SDS011;69279;49.072;17.462;2023-05-10T04:54:49;2.67;;;1.10;;
79792;SDS011;69279;49.072;17.462;2023-05-10T04:57:14;1.75;;;0.88;;
79792;SDS011;69279;49.072;17.462;2023-05-10T04:59:39;1.42;;;0.88;;
79792;SDS011;69279;49.072;17.462;2023-05-10T05:02:05;1.05;;;0.80;;
79792;SDS011;69279;49.072;17.462;2023-05-10T05:04:30;1.15;;;0.93;;
79792;SDS011;69279;49.072;17.462;2023-05-10T05:06:56;1.52;;;0.95;;
79792;SDS011;69279;49.072;17.462;2023-05-10T05:09:22;1.83;;;0.85;;
79792;SDS011;69279;49.072;17.462;2023-05-10T05:11:47;3.35;;;1.15;;
79792;SDS011;69279;49.072;17.462;2023-05-10T05:14:13;1.02;;;0.80;;
79792;SDS011;69279;49.072;17.462;2023-05-10T05:16:38;1.67;;;1.00;;
79792;SDS011;69279;49.072;17.462;2023-05-10T05:19:04;1.40;;;0.90;;
79792;SDS011;69279;49.072;17.462;2023-05-10T05:21:30;1.80;;;0.90;;
79792;SDS011;69279;49.072;17.462;2023-05-10T05:23:57;0.93;;;0.60;;
79792;SDS011;69279;49.072;17.462;2023-05-10T05:26:22;1.50;;;1.00;;
79792;SDS011;69279;49.072;17.462;2023-05-10T05:28:50;1.13;;;0.80;;
79792;SDS011;69279;49.072;17.462;2023-05-10T05:31:18;1.40;;;1.10;;
79792;SDS011;69279;49.072;17.462;2023-05-10T05:33:44;2.05;;;1.20;;
79792;SDS011;69279;49.072;17.462;2023-05-10T05:36:10;2.40;;;0.95;;
79792;SDS011;69279;49.072;17.462;2023-05-10T05:38:38;2.42;;;1.60;;
79792;SDS011;69279;49.072;17.462;2023-05-10T05:41:04;1.85;;;1.60;;
79792;SDS011;69279;49.072;17.462;2023-05-10T05:43:30;2.08;;;1.05;;
79792;SDS011;69279;49.072;17.462;2023-05-10T05:45:57;1.52;;;1.00;;
79792;SDS011;69279;49.072;17.462;2023-05-10T05:48:23;3.75;;;1.05;;
79792;SDS011;69279;49.072;17.462;2023-05-10T05:50:53;2.45;;;1.10;;
79792;SDS011;69279;49.072;17.462;2023-05-10T05:53:21;1.92;;;1.30;;
79792;SDS011;69279;49.072;17.462;2023-05-10T05:55:53;3.03;;;1.50;;
79792;SDS011;69279;49.072;17.462;2023-05-10T05:58:19;4.00;;;1.50;;
79792;SDS011;69279;49.072;17.462;2023-05-10T06:00:46;2.30;;;1.33;;
79792;SDS011;69279;49.072;17.462;2023-05-10T06:03:12;1.80;;;1.13;;
79792;SDS011;69279;49.072;17.462;2023-05-10T06:05:37;2.03;;;1.10;;
79792;SDS011;69279;49.072;17.462;2023-05-10T06:08:03;5.15;;;2.50;;
79792;SDS011;69279;49.072;17.462;2023-05-10T06:10:28;3.15;;;1.58;;
79792;SDS011;69279;49.072;17.462;2023-05-10T06:12:54;2.35;;;1.45;;
79792;SDS011;69279;49.072;17.462;2023-05-10T06:15:19;2.78;;;1.58;;
79792;SDS011;69279;49.072;17.462;2023-05-10T06:17:45;1.45;;;1.10;;
79792;SDS011;69279;49.072;17.462;2023-05-10T06:20:12;2.90;;;1.40;;
79792;SDS011;69279;49.072;17.462;2023-05-10T06:22:38;2.70;;;1.33;;
79792;SDS011;69279;49.072;17.462;2023-05-10T06:25:03;4.10;;;1.75;;
79792;SDS011;69279;49.072;17.462;2023-05-10T06:27:29;2.58;;;1.88;;
79792;SDS011;69279;49.072;17.462;2023-05-10T06:29:55;2.95;;;1.50;;
79792;SDS011;69279;49.072;17.462;2023-05-10T06:32:20;2.33;;;1.58;;
79792;SDS011;69279;49.072;17.462;2023-05-10T06:34:46;2.67;;;1.38;;
79792;SDS011;69279;49.072;17.462;2023-05-10T06:37:12;2.22;;;1.50;;
79792;SDS011;69279;49.072;17.462;2023-05-10T06:39:38;2.45;;;1.23;;
79792;SDS011;69279;49.072;17.462;2023-05-10T06:42:03;3.05;;;1.70;;
79792;SDS011;69279;49.072;17.462;2023-05-10T06:44:30;3.00;;;1.45;;
79792;SDS011;69279;49.072;17.462;2023-05-10T06:46:55;1.75;;;1.40;;
79792;SDS011;69279;49.072;17.462;2023-05-10T06:49:21;3.78;;;1.67;;
79792;SDS011;69279;49.072;17.462;2023-05-10T06:51:47;2.72;;;1.48;;
79792;SDS011;69279;49.072;17.462;2023-05-10T06:54:13;3.05;;;1.35;;
79792;SDS011;69279;49.072;17.462;2023-05-10T06:56:39;3.50;;;1.50;;
79792;SDS011;69279;49.072;17.462;2023-05-10T06:59:04;1.73;;;1.13;;
79792;SDS011;69279;49.072;17.462;2023-05-10T07:01:30;3.28;;;1.20;;
79792;SDS011;69279;49.072;17.462;2023-05-10T07:03:55;2.47;;;1.77;;
79792;SDS011;69279;49.072;17.462;2023-05-10T07:06:21;1.90;;;1.27;;
79792;SDS011;69279;49.072;17.462;2023-05-10T07:08:46;2.15;;;1.38;;
79792;SDS011;69279;49.072;17.462;2023-05-10T07:11:12;2.47;;;1.50;;
79792;SDS011;69279;49.072;17.462;2023-05-10T07:13:37;2.72;;;1.50;;
79792;SDS011;69279;49.072;17.462;2023-05-10T07:16:09;1.80;;;1.30;;
79792;SDS011;69279;49.072;17.462;2023-05-10T07:18:35;1.48;;;1.20;;
79792;SDS011;69279;49.072;17.462;2023-05-10T07:21:01;3.25;;;1.48;;
79792;SDS011;69279;49.072;17.462;2023-05-10T07:23:26;2.20;;;1.05;;
79792;SDS011;69279;49.072;17.462;2023-05-10T07:25:52;1.90;;;1.20;;
79792;SDS011;69279;49.072;17.462;2023-05-10T07:28:17;2.80;;;1.58;;
79792;SDS011;69279;49.072;17.462;2023-05-10T07:30:46;2.85;;;1.17;;
79792;SDS011;69279;49.072;17.462;2023-05-10T07:33:13;4.53;;;1.60;;
79792;SDS011;69279;49.072;17.462;2023-05-10T07:35:42;1.77;;;1.05;;
79792;SDS011;69279;49.072;17.462;2023-05-10T07:38:08;5.05;;;1.80;;
79792;SDS011;69279;49.072;17.462;2023-05-10T07:40:42;2.22;;;1.27;;
79792;SDS011;69279;49.072;17.462;2023-05-10T07:43:09;1.73;;;1.10;;
79792;SDS011;69279;49.072;17.462;2023-05-10T07:45:34;6.43;;;1.80;;
79792;SDS011;69279;49.072;17.462;2023-05-10T07:48:00;1.60;;;0.82;;
79792;SDS011;69279;49.072;17.462;2023-05-10T07:50:27;2.75;;;1.67;;
79792;SDS011;69279;49.072;17.462;2023-05-10T07:52:53;2.80;;;1.30;;
79792;SDS011;69279;49.072;17.462;2023-05-10T07:55:19;4.25;;;1.50;;
79792;SDS011;69279;49.072;17.462;2023-05-10T07:57:46;2.92;;;1.10;;
79792;SDS011;69279;49.072;17.462;2023-05-10T08:00:18;3.00;;;1.60;;
79792;SDS011;69279;49.072;17.462;2023-05-10T08:02:45;2.03;;;1.40;;
79792;SDS011;69279;49.072;17.462;2023-05-10T08:05:10;2.08;;;1.25;;
79792;SDS011;69279;49.072;17.462;2023-05-10T08:07:36;4.72;;;1.20;;
79792;SDS011;69279;49.072;17.462;2023-05-10T08:10:04;2.78;;;1.13;;
79792;SDS011;69279;49.072;17.462;2023-05-10T08:12:30;1.75;;;1.30;;
79792;SDS011;69279;49.072;17.462;2023-05-10T08:14:56;1.75;;;1.40;;
79792;SDS011;69279;49.072;17.462;2023-05-10T08:17:22;2.65;;;1.27;;
79792;SDS011;69279;49.072;17.462;2023-05-10T08:19:47;2.72;;;1.27;;
79792;SDS011;69279;49.072;17.462;2023-05-10T08:22:13;2.90;;;1.33;;
79792;SDS011;69279;49.072;17.462;2023-05-10T08:24:38;2.35;;;1.40;;
79792;SDS011;69279;49.072;17.462;2023-05-10T08:27:07;1.88;;;1.10;;
79792;SDS011;69279;49.072;17.462;2023-05-10T08:29:33;1.70;;;1.20;;
79792;SDS011;69279;49.072;17.462;2023-05-10T08:32:04;1.67;;;1.40;;
79792;SDS011;69279;49.072;17.462;2023-05-10T08:34:33;1.75;;;1.30;;
79792;SDS011;69279;49.072;17.462;2023-05-10T08:37:03;2.53;;;1.42;;
79792;SDS011;69279;49.072;17.462;2023-05-10T08:39:33;2.60;;;1.55;;
79792;SDS011;69279;49.072;17.462;2023-05-10T08:42:07;2.17;;;1.50;;
79792;SDS011;69279;49.072;17.462;2023-05-10T08:44:34;3.17;;;1.00;;
79792;SDS011;69279;49.072;17.462;2023-05-10T08:50:04;1.50;;;1.20;;
79792;SDS011;69279;49.072;17.462;2023-05-10T08:52:30;1.58;;;1.00;;
79792;SDS011;69279;49.072;17.462;2023-05-10T08:54:56;3.15;;;1.33;;
79792;SDS011;69279;49.072;17.462;2023-05-10T08:57:22;1.98;;;1.27;;
79792;SDS011;69279;49.072;17.462;2023-05-10T08:59:47;1.30;;;1.00;;
79792;SDS011;69279;49.072;17.462;2023-05-10T09:02:13;2.10;;;1.00;;
79792;SDS011;69279;49.072;17.462;2023-05-10T09:04:39;1.38;;;1.27;;
79792;SDS011;69279;49.072;17.462;2023-05-10T09:33:45;1.88;;;1.00;;
79792;SDS011;69279;49.072;17.462;2023-05-10T09:36:12;2.90;;;1.50;;
79792;SDS011;69279;49.072;17.462;2023-05-10T09:38:52;3.70;;;1.50;;
79792;SDS011;69279;49.072;17.462;2023-05-10T09:41:21;4.53;;;1.30;;
79792;SDS011;69279;49.072;17.462;2023-05-10T09:43:48;1.75;;;1.20;;
79792;SDS011;69279;49.072;17.462;2023-05-10T09:46:17;1.80;;;1.20;;
79792;SDS011;69279;49.072;17.462;2023-05-10T09:48:43;1.83;;;1.10;;
79792;SDS011;69279;49.072;17.462;2023-05-10T09:51:25;2.40;;;1.33;;
79792;SDS011;69279;49.072;17.462;2023-05-10T09:56:40;2.15;;;1.25;;
79792;SDS011;69279;49.072;17.462;2023-05-10T09:59:06;2.28;;;1.02;;
79792;SDS011;69279;49.072;17.462;2023-05-10T10:01:33;4.75;;;1.50;;
79792;SDS011;69279;49.072;17.462;2023-05-10T10:04:05;2.08;;;1.23;;
79792;SDS011;69279;49.072;17.462;2023-05-10T10:06:36;3.10;;;1.67;;
79792;SDS011;69279;49.072;17.462;2023-05-10T10:09:07;2.45;;;1.27;;
79792;SDS011;69279;49.072;17.462;2023-05-10T10:11:36;2.22;;;1.30;;
79792;SDS011;69279;49.072;17.462;2023-05-10T10:14:04;1.88;;;1.33;;
79792;SDS011;69279;49.072;17.462;2023-05-10T10:16:36;2.05;;;1.17;;
79792;SDS011;69279;49.072;17.462;2023-05-10T10:19:02;1.45;;;1.25;;
79792;SDS011;69279;49.072;17.462;2023-05-10T10:21:28;2.30;;;1.40;;
79792;SDS011;69279;49.072;17.462;2023-05-10T10:23:57;2.58;;;1.23;;
79792;SDS011;69279;49.072;17.462;2023-05-10T10:26:39;2.17;;;1.10;;
79792;SDS011;69279;49.072;17.462;2023-05-10T10:31:51;1.88;;;1.20;;
79792;SDS011;69279;49.072;17.462;2023-05-10T10:34:25;2.50;;;1.10;;
79792;SDS011;69279;49.072;17.462;2023-05-10T10:42:55;2.05;;;1.20;;
79792;SDS011;69279;49.072;17.462;2023-05-10T10:45:24;2.72;;;1.65;;
79792;SDS011;69279;49.072;17.462;2023-05-10T10:50:45;1.98;;;0.98;;
79792;SDS011;69279;49.072;17.462;2023-05-10T10:53:11;1.75;;;1.17;;
79792;SDS011;69279;49.072;17.462;2023-05-10T10:55:47;3.13;;;1.30;;
79792;SDS011;69279;49.072;17.462;2023-05-10T10:58:30;2.03;;;1.42;;
79792;SDS011;69279;49.072;17.462;2023-05-10T11:06:33;2.53;;;1.10;;
79792;SDS011;69279;49.072;17.462;2023-05-10T11:09:04;3.60;;;1.25;;
79792;SDS011;69279;49.072;17.462;2023-05-10T11:11:35;2.88;;;1.40;;
79792;SDS011;69279;49.072;17.462;2023-05-10T11:14:04;2.30;;;0.85;;
79792;SDS011;69279;49.072;17.462;2023-05-10T11:16:42;2.35;;;1.27;;
79792;SDS011;69279;49.072;17.462;2023-05-10T11:19:12;5.00;;;1.50;;
79792;SDS011;69279;49.072;17.462;2023-05-10T11:21:46;3.67;;;1.10;;
79792;SDS011;69279;49.072;17.462;2023-05-10T11:24:20;1.77;;;1.30;;
79792;SDS011;69279;49.072;17.462;2023-05-10T11:26:50;2.05;;;1.40;;
79792;SDS011;69279;49.072;17.462;2023-05-10T11:29:20;1.73;;;1.52;;
79792;SDS011;69279;49.072;17.462;2023-05-10T11:31:46;2.17;;;1.35;;
79792;SDS011;69279;49.072;17.462;2023-05-10T11:34:33;3.08;;;1.10;;
79792;SDS011;69279;49.072;17.462;2023-05-10T11:37:01;1.63;;;1.52;;
79792;SDS011;69279;49.072;17.462;2023-05-10T11:39:27;2.85;;;1.30;;
79792;SDS011;69279;49.072;17.462;2023-05-10T11:41:54;2.05;;;1.15;;
79792;SDS011;69279;49.072;17.462;2023-05-10T11:44:20;1.60;;;1.35;;
79792;SDS011;69279;49.072;17.462;2023-05-10T11:46:45;1.92;;;1.23;;
79792;SDS011;69279;49.072;17.462;2023-05-10T11:49:11;3.42;;;1.02;;
79792;SDS011;69279;49.072;17.462;2023-05-10T11:51:38;2.47;;;1.05;;
79792;SDS011;69279;49.072;17.462;2023-05-10T11:54:08;2.10;;;1.10;;
79792;SDS011;69279;49.072;17.462;2023-05-10T11:56:35;2.70;;;1.35;;
79792;SDS011;69279;49.072;17.462;2023-05-10T11:59:01;1.80;;;1.00;;
79792;SDS011;69279;49.072;17.462;2023-05-10T12:01:28;2.25;;;1.50;;
79792;SDS011;69279;49.072;17.462;2023-05-10T12:03:54;1.70;;;1.52;;
79792;SDS011;69279;49.072;17.462;2023-05-10T12:06:31;2.67;;;1.38;;
79792;SDS011;69279;49.072;17.462;2023-05-10T12:08:57;2.00;;;1.00;;
79792;SDS011;69279;49.072;17.462;2023-05-10T12:11:35;2.35;;;1.30;;
79792;SDS011;69279;49.072;17.462;2023-05-10T12:14:04;3.55;;;1.65;;
79792;SDS011;69279;49.072;17.462;2023-05-10T12:16:30;1.38;;;1.00;;
79792;SDS011;69279;49.072;17.462;2023-05-10T12:18:57;2.10;;;1.10;;
79792;SDS011;69279;49.072;17.462;2023-05-10T12:21:26;2.38;;;1.60;;
79792;SDS011;69279;49.072;17.462;2023-05-10T12:23:54;2.15;;;1.13;;
79792;SDS011;69279;49.072;17.462;2023-05-10T12:26:22;2.05;;;1.33;;
79792;SDS011;69279;49.072;17.462;2023-05-10T12:28:49;3.38;;;1.27;;
79792;SDS011;69279;49.072;17.462;2023-05-10T12:31:19;3.40;;;1.40;;
79792;SDS011;69279;49.072;17.462;2023-05-10T12:33:44;2.55;;;1.17;;
79792;SDS011;69279;49.072;17.462;2023-05-10T12:36:12;2.42;;;1.73;;
79792;SDS011;69279;49.072;17.462;2023-05-10T12:38:38;2.08;;;1.38;;
79792;SDS011;69279;49.072;17.462;2023-05-10T12:41:11;1.45;;;1.30;;
79792;SDS011;69279;49.072;17.462;2023-05-10T12:43:38;2.50;;;1.73;;
79792;SDS011;69279;49.072;17.462;2023-05-10T12:46:07;2.53;;;1.20;;
79792;SDS011;69279;49.072;17.462;2023-05-10T12:48:33;1.65;;;1.50;;
79792;SDS011;69279;49.072;17.462;2023-05-10T12:51:00;1.77;;;1.42;;
79792;SDS011;69279;49.072;17.462;2023-05-10T12:53:25;1.83;;;1.10;;
79792;SDS011;69279;49.072;17.462;2023-05-10T12:55:51;2.33;;;1.17;;
79792;SDS011;69279;49.072;17.462;2023-05-10T12:58:16;1.80;;;1.20;;
79792;SDS011;69279;49.072;17.462;2023-05-10T13:00:42;1.52;;;1.23;;
79792;SDS011;69279;49.072;17.462;2023-05-10T13:03:08;2.15;;;1.42;;
79792;SDS011;69279;49.072;17.462;2023-05-10T13:05:35;1.65;;;1.25;;
79792;SDS011;69279;49.072;17.462;2023-05-10T13:08:00;2.38;;;1.20;;
79792;SDS011;69279;49.072;17.462;2023-05-10T13:10:26;1.95;;;1.25;;
79792;SDS011;69279;49.072;17.462;2023-05-10T13:12:51;2.17;;;1.50;;
79792;SDS011;69279;49.072;17.462;2023-05-10T13:15:17;2.00;;;1.25;;
79792;SDS011;69279;49.072;17.462;2023-05-10T13:17:42;2.63;;;1.30;;
79792;SDS011;69279;49.072;17.462;2023-05-10T13:20:08;1.55;;;1.20;;
79792;SDS011;69279;49.072;17.462;2023-05-10T13:22:34;2.03;;;1.10;;
79792;SDS011;69279;49.072;17.462;2023-05-10T13:25:00;2.05;;;1.00;;
79792;SDS011;69279;49.072;17.462;2023-05-10T13:27:26;2.08;;;1.25;;
79792;SDS011;69279;49.072;17.462;2023-05-10T13:29:51;1.80;;;1.08;;
79792;SDS011;69279;49.072;17.462;2023-05-10T13:32:17;1.85;;;1.35;;
79792;SDS011;69279;49.072;17.462;2023-05-10T13:34:42;1.45;;;1.35;;
79792;SDS011;69279;49.072;17.462;2023-05-10T13:37:07;1.80;;;1.10;;
79792;SDS011;69279;49.072;17.462;2023-05-10T13:39:33;1.70;;;1.33;;
79792;SDS011;69279;49.072;17.462;2023-05-10T13:41:59;1.48;;;1.10;;
79792;SDS011;69279;49.072;17.462;2023-05-10T13:44:25;2.22;;;1.17;;
79792;SDS011;69279;49.072;17.462;2023-05-10T13:46:50;1.75;;;1.30;;
79792;SDS011;69279;49.072;17.462;2023-05-10T13:49:16;1.88;;;1.33;;
79792;SDS011;69279;49.072;17.462;2023-05-10T13:51:42;1.90;;;1.10;;
79792;SDS011;69279;49.072;17.462;2023-05-10T13:54:08;1.15;;;0.90;;
79792;SDS011;69279;49.072;17.462;2023-05-10T13:56:34;1.20;;;1.10;;
79792;SDS011;69279;49.072;17.462;2023-05-10T13:58:59;1.75;;;1.40;;
79792;SDS011;69279;49.072;17.462;2023-05-10T14:01:25;1.50;;;1.13;;
79792;SDS011;69279;49.072;17.462;2023-05-10T14:03:51;1.05;;;0.70;;
79792;SDS011;69279;49.072;17.462;2023-05-10T14:06:16;1.73;;;1.30;;
79792;SDS011;69279;49.072;17.462;2023-05-10T14:08:42;1.30;;;1.10;;
79792;SDS011;69279;49.072;17.462;2023-05-10T14:11:08;1.15;;;1.00;;
79792;SDS011;69279;49.072;17.462;2023-05-10T14:13:34;2.33;;;1.30;;
79792;SDS011;69279;49.072;17.462;2023-05-10T14:15:59;1.30;;;1.20;;
79792;SDS011;69279;49.072;17.462;2023-05-10T14:18:26;1.40;;;1.10;;
79792;SDS011;69279;49.072;17.462;2023-05-10T14:20:52;1.67;;;1.20;;
79792;SDS011;69279;49.072;17.462;2023-05-10T14:23:17;1.58;;;0.90;;
79792;SDS011;69279;49.072;17.462;2023-05-10T14:25:45;1.92;;;1.20;;
79792;SDS011;69279;49.072;17.462;2023-05-10T14:28:10;1.80;;;1.25;;
79792;SDS011;69279;49.072;17.462;2023-05-10T14:30:37;1.70;;;1.10;;
79792;SDS011;69279;49.072;17.462;2023-05-10T14:33:02;1.50;;;1.05;;
79792;SDS011;69279;49.072;17.462;2023-05-10T14:35:28;2.00;;;1.27;;
79792;SDS011;69279;49.072;17.462;2023-05-10T14:37:55;2.53;;;1.52;;
79792;SDS011;69279;49.072;17.462;2023-05-10T14:40:21;1.25;;;1.13;;
79792;SDS011;69279;49.072;17.462;2023-05-10T14:42:46;1.10;;;0.95;;
79792;SDS011;69279;49.072;17.462;2023-05-10T14:45:12;1.67;;;1.58;;
79792;SDS011;69279;49.072;17.462;2023-05-10T14:47:37;1.30;;;1.00;;
79792;SDS011;69279;49.072;17.462;2023-05-10T14:50:03;1.42;;;1.00;;
79792;SDS011;69279;49.072;17.462;2023-05-10T14:52:29;1.75;;;1.17;;
79792;SDS011;69279;49.072;17.462;2023-05-10T14:54:54;1.60;;;1.48;;
79792;SDS011;69279;49.072;17.462;2023-05-10T14:57:19;1.40;;;1.30;;
79792;SDS011;69279;49.072;17.462;2023-05-10T14:59:45;1.20;;;1.00;;
79792;SDS011;69279;49.072;17.462;2023-05-10T15:02:13;1.35;;;1.05;;
79792;SDS011;69279;49.072;17.462;2023-05-10T15:04:39;1.00;;;0.90;;
79792;SDS011;69279;49.072;17.462;2023-05-10T15:07:05;1.60;;;1.38;;
79792;SDS011;69279;49.072;17.462;2023-05-10T15:09:30;1.85;;;1.23;;
79792;SDS011;69279;49.072;17.462;2023-05-10T15:11:56;1.77;;;1.40;;
79792;SDS011;69279;49.072;17.462;2023-05-10T15:14:21;1.48;;;1.17;;
79792;SDS011;69279;49.072;17.462;2023-05-10T15:16:47;1.95;;;1.33;;
79792;SDS011;69279;49.072;17.462;2023-05-10T15:19:13;1.63;;;1.52;;
79792;SDS011;69279;49.072;17.462;2023-05-10T15:21:38;1.35;;;1.25;;
79792;SDS011;69279;49.072;17.462;2023-05-10T15:24:06;2.03;;;1.10;;
79792;SDS011;69279;49.072;17.462;2023-05-10T15:26:32;1.40;;;1.30;;
79792;SDS011;69279;49.072;17.462;2023-05-10T15:28:57;1.25;;;1.15;;
79792;SDS011;69279;49.072;17.462;2023-05-10T15:31:23;2.08;;;1.40;;
79792;SDS011;69279;49.072;17.462;2023-05-10T15:33:49;1.67;;;1.45;;
79792;SDS011;69279;49.072;17.462;2023-05-10T15:36:14;1.40;;;1.20;;
79792;SDS011;69279;49.072;17.462;2023-05-10T15:38:40;1.60;;;1.35;;
79792;SDS011;69279;49.072;17.462;2023-05-10T15:41:05;1.48;;;1.20;;
79792;SDS011;69279;49.072;17.462;2023-05-10T15:43:31;1.20;;;1.10;;